Terminal Aerodrome Forecast
Issued by NWS

Current Version | Previous Version | Text Only | Print | Product List | Glossary Off
Versions: 1 2 3 4 5 6 7 8 9 10 11 12 13 14 15 16 17 18 19 20 21 22

000
FTUS41 KRLX 272340
TAFCKB
TAF
KCKB 272340Z 2800/2824 18003KT P6SM BKN050
      TEMPO 2805/2808 3SM TSRA SCT025 OVC040CB
     FM280800 24004KT 4SM SHRA OVC025
     FM281200 VRB03KT 5SM SHRA OVC015
     FM281500 25005KT P6SM OVC025
     FM282200 32007KT P6SM OVC035=

USA.gov is the U.S. government's official web portal to all federal, state and local government web resources and services.